createdAt,value
2023-03-06T00:03:52.517Z,20.83
2023-03-06T00:44:21.137Z,22.10
2023-03-06T01:10:00.961Z,20.80
2023-03-06T02:40:40.742Z,22.73
2023-03-06T03:36:29.787Z,24.10
2023-03-06T04:02:18.517Z,26.70
2023-03-06T04:43:00.309Z,19.93
2023-03-06T05:08:01.378Z,23.00
2023-03-06T05:28:47.359Z,22.97
2023-03-06T05:53:46.623Z,23.70
2023-03-06T06:13:45.411Z,24.73
2023-03-06T06:49:39.798Z,25.20
2023-03-06T07:20:11.886Z,24.57
2023-03-06T07:45:09.581Z,22.50
2023-03-06T08:20:35.249Z,18.67
2023-03-06T08:46:24.991Z,17.70
2023-03-06T09:16:45.822Z,13.07
2023-03-06T09:42:23.873Z,9.73
2023-03-06T10:07:20.381Z,10.40
2023-03-06T10:33:02.326Z,10.47
2023-03-06T11:03:21.041Z,8.67
2023-03-06T11:23:42.342Z,10.10
2023-03-06T11:53:48.573Z,9.30
2023-03-06T12:49:32.340Z,8.90
2023-03-06T14:56:19.760Z,21.47
2023-03-06T15:21:39.360Z,22.03
2023-03-06T15:47:08.518Z,25.57
2023-03-06T16:07:48.302Z,27.53
2023-03-06T16:32:50.208Z,26.90
2023-03-06T16:53:29.096Z,29.83
2023-03-06T17:39:06.310Z,25.13
2023-03-06T18:08:56.052Z,26.17
2023-03-06T18:34:15.417Z,25.90
2023-03-06T20:21:16.855Z,13.80
2023-03-06T20:46:41.792Z,15.07
2023-03-06T21:17:15.619Z,14.00
2023-03-06T21:21:35.114Z,13.70
2023-03-06T21:47:09.010Z,19.50
2023-03-06T22:17:29.658Z,22.37
2023-03-06T22:38:19.251Z,23.10
2023-03-06T22:58:06.116Z,24.67
2023-03-06T23:18:43.872Z,16.17
2023-03-06T23:44:13.149Z,21.60
